sensor_id;sensor_type;location;lat;lon;timestamp;P1;durP1;ratioP1;P2;durP2;ratioP2
19251;SDS011;9760;50.944;5.304;2022-07-23T00:00:14;12.77;;;6.47;;
19251;SDS011;9760;50.944;5.304;2022-07-23T00:02:41;19.83;;;7.80;;
19251;SDS011;9760;50.944;5.304;2022-07-23T00:05:07;13.20;;;7.07;;
19251;SDS011;9760;50.944;5.304;2022-07-23T00:07:34;12.53;;;7.87;;
19251;SDS011;9760;50.944;5.304;2022-07-23T00:10:00;13.13;;;7.30;;
19251;SDS011;9760;50.944;5.304;2022-07-23T00:12:25;16.47;;;7.77;;
19251;SDS011;9760;50.944;5.304;2022-07-23T00:14:51;11.10;;;6.30;;
19251;SDS011;9760;50.944;5.304;2022-07-23T00:17:17;14.17;;;7.23;;
19251;SDS011;9760;50.944;5.304;2022-07-23T00:19:42;10.80;;;6.57;;
19251;SDS011;9760;50.944;5.304;2022-07-23T00:22:08;14.93;;;7.23;;
19251;SDS011;9760;50.944;5.304;2022-07-23T00:24:34;14.67;;;7.37;;
19251;SDS011;9760;50.944;5.304;2022-07-23T00:26:59;12.63;;;6.90;;
19251;SDS011;9760;50.944;5.304;2022-07-23T00:29:25;14.80;;;7.13;;
19251;SDS011;9760;50.944;5.304;2022-07-23T00:31:51;13.87;;;6.93;;
19251;SDS011;9760;50.944;5.304;2022-07-23T00:34:16;12.37;;;6.87;;
19251;SDS011;9760;50.944;5.304;2022-07-23T00:36:42;18.50;;;7.33;;
19251;SDS011;9760;50.944;5.304;2022-07-23T00:39:07;13.30;;;6.70;;
19251;SDS011;9760;50.944;5.304;2022-07-23T00:41:33;18.57;;;7.10;;
19251;SDS011;9760;50.944;5.304;2022-07-23T00:46:48;14.90;;;7.37;;
19251;SDS011;9760;50.944;5.304;2022-07-23T00:49:15;13.23;;;7.20;;
19251;SDS011;9760;50.944;5.304;2022-07-23T00:51:41;19.13;;;6.80;;
19251;SDS011;9760;50.944;5.304;2022-07-23T00:54:07;13.13;;;7.03;;
19251;SDS011;9760;50.944;5.304;2022-07-23T00:56:33;12.67;;;6.73;;
19251;SDS011;9760;50.944;5.304;2022-07-23T00:59:00;15.53;;;6.87;;
19251;SDS011;9760;50.944;5.304;2022-07-23T01:01:26;10.97;;;6.83;;
19251;SDS011;9760;50.944;5.304;2022-07-23T01:03:52;14.73;;;6.87;;
19251;SDS011;9760;50.944;5.304;2022-07-23T01:06:17;14.23;;;7.60;;
19251;SDS011;9760;50.944;5.304;2022-07-23T01:08:43;12.90;;;7.67;;
19251;SDS011;9760;50.944;5.304;2022-07-23T01:11:09;16.33;;;7.70;;
19251;SDS011;9760;50.944;5.304;2022-07-23T01:13:35;13.23;;;6.73;;
19251;SDS011;9760;50.944;5.304;2022-07-23T01:16:00;14.83;;;7.63;;
19251;SDS011;9760;50.944;5.304;2022-07-23T01:18:26;13.37;;;7.80;;
19251;SDS011;9760;50.944;5.304;2022-07-23T01:20:52;13.00;;;7.53;;
19251;SDS011;9760;50.944;5.304;2022-07-23T01:23:17;15.97;;;7.90;;
19251;SDS011;9760;50.944;5.304;2022-07-23T01:25:47;17.87;;;7.23;;
19251;SDS011;9760;50.944;5.304;2022-07-23T01:28:14;13.43;;;7.37;;
19251;SDS011;9760;50.944;5.304;2022-07-23T01:30:40;14.80;;;7.63;;
19251;SDS011;9760;50.944;5.304;2022-07-23T01:33:05;14.67;;;7.80;;
19251;SDS011;9760;50.944;5.304;2022-07-23T01:35:31;12.43;;;7.40;;
19251;SDS011;9760;50.944;5.304;2022-07-23T01:37:56;17.20;;;8.53;;
19251;SDS011;9760;50.944;5.304;2022-07-23T01:40:22;15.17;;;7.73;;
19251;SDS011;9760;50.944;5.304;2022-07-23T01:42:48;18.37;;;8.27;;
19251;SDS011;9760;50.944;5.304;2022-07-23T01:45:13;17.63;;;7.47;;
19251;SDS011;9760;50.944;5.304;2022-07-23T01:47:39;16.33;;;8.87;;
19251;SDS011;9760;50.944;5.304;2022-07-23T01:50:05;16.07;;;8.47;;
19251;SDS011;9760;50.944;5.304;2022-07-23T01:52:31;20.60;;;8.30;;
19251;SDS011;9760;50.944;5.304;2022-07-23T01:54:57;13.80;;;7.40;;
19251;SDS011;9760;50.944;5.304;2022-07-23T01:57:22;16.53;;;7.90;;
19251;SDS011;9760;50.944;5.304;2022-07-23T01:59:48;15.27;;;7.70;;
19251;SDS011;9760;50.944;5.304;2022-07-23T02:02:13;17.23;;;8.70;;
19251;SDS011;9760;50.944;5.304;2022-07-23T02:04:39;16.13;;;8.77;;
19251;SDS011;9760;50.944;5.304;2022-07-23T02:07:05;13.23;;;7.47;;
19251;SDS011;9760;50.944;5.304;2022-07-23T02:09:30;15.43;;;8.27;;
19251;SDS011;9760;50.944;5.304;2022-07-23T02:11:56;19.30;;;8.00;;
19251;SDS011;9760;50.944;5.304;2022-07-23T02:14:22;13.97;;;8.20;;
19251;SDS011;9760;50.944;5.304;2022-07-23T02:16:48;14.17;;;7.90;;
19251;SDS011;9760;50.944;5.304;2022-07-23T02:19:14;16.50;;;7.90;;
19251;SDS011;9760;50.944;5.304;2022-07-23T02:21:39;16.77;;;8.10;;
19251;SDS011;9760;50.944;5.304;2022-07-23T02:24:05;14.40;;;7.67;;
19251;SDS011;9760;50.944;5.304;2022-07-23T02:26:31;17.77;;;8.20;;
19251;SDS011;9760;50.944;5.304;2022-07-23T02:29:03;14.63;;;7.47;;
19251;SDS011;9760;50.944;5.304;2022-07-23T02:31:30;13.23;;;7.80;;
19251;SDS011;9760;50.944;5.304;2022-07-23T02:33:56;13.93;;;7.63;;
19251;SDS011;9760;50.944;5.304;2022-07-23T02:36:23;18.83;;;8.30;;
19251;SDS011;9760;50.944;5.304;2022-07-23T02:38:49;17.57;;;8.10;;
19251;SDS011;9760;50.944;5.304;2022-07-23T02:41:15;18.63;;;8.60;;
19251;SDS011;9760;50.944;5.304;2022-07-23T02:43:40;17.27;;;8.80;;
19251;SDS011;9760;50.944;5.304;2022-07-23T02:46:06;14.97;;;7.97;;
19251;SDS011;9760;50.944;5.304;2022-07-23T02:48:32;18.83;;;9.43;;
19251;SDS011;9760;50.944;5.304;2022-07-23T02:50:58;14.07;;;7.87;;
19251;SDS011;9760;50.944;5.304;2022-07-23T02:53:23;21.00;;;8.73;;
19251;SDS011;9760;50.944;5.304;2022-07-23T02:55:49;14.43;;;7.80;;
19251;SDS011;9760;50.944;5.304;2022-07-23T02:58:15;15.53;;;8.67;;
19251;SDS011;9760;50.944;5.304;2022-07-23T03:00:41;16.77;;;7.97;;
19251;SDS011;9760;50.944;5.304;2022-07-23T03:03:06;17.07;;;7.93;;
19251;SDS011;9760;50.944;5.304;2022-07-23T03:05:32;17.13;;;9.13;;
19251;SDS011;9760;50.944;5.304;2022-07-23T03:07:58;17.43;;;8.47;;
19251;SDS011;9760;50.944;5.304;2022-07-23T03:10:24;15.23;;;7.77;;
19251;SDS011;9760;50.944;5.304;2022-07-23T03:12:50;14.17;;;8.27;;
19251;SDS011;9760;50.944;5.304;2022-07-23T03:15:16;18.37;;;8.70;;
19251;SDS011;9760;50.944;5.304;2022-07-23T03:17:41;17.57;;;8.37;;
19251;SDS011;9760;50.944;5.304;2022-07-23T03:20:07;15.37;;;8.70;;
19251;SDS011;9760;50.944;5.304;2022-07-23T03:22:33;15.67;;;8.23;;
19251;SDS011;9760;50.944;5.304;2022-07-23T03:24:59;15.13;;;8.07;;
19251;SDS011;9760;50.944;5.304;2022-07-23T03:27:25;17.70;;;7.70;;
19251;SDS011;9760;50.944;5.304;2022-07-23T03:29:53;15.53;;;8.20;;
19251;SDS011;9760;50.944;5.304;2022-07-23T03:32:20;13.90;;;7.63;;
19251;SDS011;9760;50.944;5.304;2022-07-23T03:34:45;16.37;;;8.37;;
19251;SDS011;9760;50.944;5.304;2022-07-23T03:37:11;14.43;;;8.90;;
19251;SDS011;9760;50.944;5.304;2022-07-23T03:39:37;13.73;;;7.97;;
19251;SDS011;9760;50.944;5.304;2022-07-23T03:42:02;18.10;;;8.73;;
19251;SDS011;9760;50.944;5.304;2022-07-23T03:44:28;17.37;;;8.40;;
19251;SDS011;9760;50.944;5.304;2022-07-23T03:46:54;14.27;;;7.53;;
19251;SDS011;9760;50.944;5.304;2022-07-23T03:49:19;17.83;;;8.80;;
19251;SDS011;9760;50.944;5.304;2022-07-23T03:51:45;15.27;;;8.80;;
19251;SDS011;9760;50.944;5.304;2022-07-23T03:54:11;14.67;;;8.77;;
19251;SDS011;9760;50.944;5.304;2022-07-23T03:56:37;19.17;;;9.27;;
19251;SDS011;9760;50.944;5.304;2022-07-23T03:59:02;17.10;;;9.77;;
19251;SDS011;9760;50.944;5.304;2022-07-23T04:01:28;15.70;;;9.23;;
19251;SDS011;9760;50.944;5.304;2022-07-23T04:03:54;17.83;;;8.60;;
19251;SDS011;9760;50.944;5.304;2022-07-23T04:06:19;15.27;;;8.83;;
19251;SDS011;9760;50.944;5.304;2022-07-23T04:08:45;16.70;;;9.07;;
19251;SDS011;9760;50.944;5.304;2022-07-23T04:11:11;17.17;;;9.37;;
19251;SDS011;9760;50.944;5.304;2022-07-23T04:13:36;19.50;;;9.00;;
19251;SDS011;9760;50.944;5.304;2022-07-23T04:16:02;18.97;;;8.73;;
19251;SDS011;9760;50.944;5.304;2022-07-23T04:18:28;24.50;;;9.20;;
19251;SDS011;9760;50.944;5.304;2022-07-23T04:20:54;17.23;;;8.97;;
19251;SDS011;9760;50.944;5.304;2022-07-23T04:23:20;16.10;;;9.37;;
19251;SDS011;9760;50.944;5.304;2022-07-23T04:25:45;14.13;;;8.57;;
19251;SDS011;9760;50.944;5.304;2022-07-23T04:28:11;13.20;;;8.23;;
19251;SDS011;9760;50.944;5.304;2022-07-23T04:30:37;11.93;;;7.60;;
19251;SDS011;9760;50.944;5.304;2022-07-23T04:33:03;13.27;;;7.80;;
19251;SDS011;9760;50.944;5.304;2022-07-23T04:35:31;12.27;;;8.00;;
19251;SDS011;9760;50.944;5.304;2022-07-23T04:37:58;12.27;;;7.53;;
19251;SDS011;9760;50.944;5.304;2022-07-23T04:40:24;16.63;;;7.33;;
19251;SDS011;9760;50.944;5.304;2022-07-23T04:42:50;13.70;;;7.87;;
19251;SDS011;9760;50.944;5.304;2022-07-23T04:45:16;21.23;;;8.60;;
19251;SDS011;9760;50.944;5.304;2022-07-23T04:47:41;14.93;;;7.87;;
19251;SDS011;9760;50.944;5.304;2022-07-23T04:50:07;13.97;;;7.87;;
19251;SDS011;9760;50.944;5.304;2022-07-23T04:52:33;13.17;;;7.83;;
19251;SDS011;9760;50.944;5.304;2022-07-23T04:54:58;15.97;;;8.03;;
19251;SDS011;9760;50.944;5.304;2022-07-23T04:57:24;12.90;;;7.97;;
19251;SDS011;9760;50.944;5.304;2022-07-23T04:59:49;15.43;;;8.63;;
19251;SDS011;9760;50.944;5.304;2022-07-23T05:02:15;17.70;;;8.87;;
19251;SDS011;9760;50.944;5.304;2022-07-23T05:04:41;14.57;;;8.97;;
19251;SDS011;9760;50.944;5.304;2022-07-23T05:07:06;15.60;;;8.73;;
19251;SDS011;9760;50.944;5.304;2022-07-23T05:09:32;20.87;;;8.97;;
19251;SDS011;9760;50.944;5.304;2022-07-23T05:11:58;15.97;;;8.50;;
19251;SDS011;9760;50.944;5.304;2022-07-23T05:14:23;15.17;;;8.63;;
19251;SDS011;9760;50.944;5.304;2022-07-23T05:16:49;16.60;;;9.87;;
19251;SDS011;9760;50.944;5.304;2022-07-23T05:19:14;16.67;;;8.87;;
19251;SDS011;9760;50.944;5.304;2022-07-23T05:21:40;17.97;;;9.33;;
19251;SDS011;9760;50.944;5.304;2022-07-23T05:24:06;16.90;;;9.73;;
19251;SDS011;9760;50.944;5.304;2022-07-23T05:26:32;21.13;;;10.37;;
19251;SDS011;9760;50.944;5.304;2022-07-23T05:28:57;16.53;;;10.03;;
19251;SDS011;9760;50.944;5.304;2022-07-23T05:31:23;15.97;;;9.83;;
19251;SDS011;9760;50.944;5.304;2022-07-23T05:33:49;17.40;;;9.67;;
19251;SDS011;9760;50.944;5.304;2022-07-23T05:36:15;20.00;;;10.10;;
19251;SDS011;9760;50.944;5.304;2022-07-23T05:38:40;13.53;;;9.20;;
19251;SDS011;9760;50.944;5.304;2022-07-23T05:41:06;16.30;;;9.90;;
19251;SDS011;9760;50.944;5.304;2022-07-23T05:43:32;21.50;;;9.33;;
19251;SDS011;9760;50.944;5.304;2022-07-23T05:45:57;17.53;;;10.00;;
19251;SDS011;9760;50.944;5.304;2022-07-23T05:48:23;15.57;;;9.13;;
19251;SDS011;9760;50.944;5.304;2022-07-23T05:50:48;18.13;;;10.63;;
19251;SDS011;9760;50.944;5.304;2022-07-23T05:53:14;25.57;;;10.03;;
19251;SDS011;9760;50.944;5.304;2022-07-23T05:55:40;15.30;;;9.60;;
19251;SDS011;9760;50.944;5.304;2022-07-23T05:58:05;19.87;;;9.93;;
19251;SDS011;9760;50.944;5.304;2022-07-23T06:00:31;16.47;;;9.90;;
19251;SDS011;9760;50.944;5.304;2022-07-23T06:02:57;19.53;;;10.00;;
19251;SDS011;9760;50.944;5.304;2022-07-23T06:05:23;18.33;;;9.60;;
19251;SDS011;9760;50.944;5.304;2022-07-23T06:07:49;17.87;;;9.50;;
19251;SDS011;9760;50.944;5.304;2022-07-23T06:10:15;18.00;;;9.83;;
19251;SDS011;9760;50.944;5.304;2022-07-23T06:12:41;14.07;;;9.60;;
19251;SDS011;9760;50.944;5.304;2022-07-23T06:15:07;15.87;;;9.77;;
19251;SDS011;9760;50.944;5.304;2022-07-23T06:17:33;16.23;;;8.53;;
19251;SDS011;9760;50.944;5.304;2022-07-23T06:20:00;17.63;;;10.07;;
19251;SDS011;9760;50.944;5.304;2022-07-23T06:22:26;18.00;;;9.17;;
19251;SDS011;9760;50.944;5.304;2022-07-23T06:24:51;18.93;;;10.53;;
19251;SDS011;9760;50.944;5.304;2022-07-23T06:27:17;14.53;;;9.70;;
19251;SDS011;9760;50.944;5.304;2022-07-23T06:29:43;17.57;;;10.57;;
19251;SDS011;9760;50.944;5.304;2022-07-23T06:32:09;20.10;;;9.57;;
19251;SDS011;9760;50.944;5.304;2022-07-23T06:34:35;13.27;;;9.27;;
19251;SDS011;9760;50.944;5.304;2022-07-23T06:37:00;12.87;;;9.00;;
19251;SDS011;9760;50.944;5.304;2022-07-23T06:39:26;17.57;;;9.83;;
19251;SDS011;9760;50.944;5.304;2022-07-23T06:41:52;16.63;;;10.60;;
19251;SDS011;9760;50.944;5.304;2022-07-23T06:44:18;15.07;;;9.30;;
19251;SDS011;9760;50.944;5.304;2022-07-23T06:46:44;20.17;;;10.40;;
19251;SDS011;9760;50.944;5.304;2022-07-23T06:49:09;17.00;;;9.97;;
19251;SDS011;9760;50.944;5.304;2022-07-23T06:51:35;18.47;;;10.73;;
19251;SDS011;9760;50.944;5.304;2022-07-23T06:54:01;22.77;;;10.23;;
19251;SDS011;9760;50.944;5.304;2022-07-23T06:56:27;15.93;;;10.03;;
19251;SDS011;9760;50.944;5.304;2022-07-23T06:58:53;21.60;;;10.17;;
19251;SDS011;9760;50.944;5.304;2022-07-23T07:01:18;18.70;;;10.13;;
19251;SDS011;9760;50.944;5.304;2022-07-23T07:03:44;20.97;;;9.43;;
19251;SDS011;9760;50.944;5.304;2022-07-23T07:06:10;16.90;;;9.50;;
19251;SDS011;9760;50.944;5.304;2022-07-23T07:08:36;15.60;;;9.47;;
19251;SDS011;9760;50.944;5.304;2022-07-23T07:11:02;15.10;;;9.23;;
19251;SDS011;9760;50.944;5.304;2022-07-23T07:13:28;15.70;;;9.80;;
19251;SDS011;9760;50.944;5.304;2022-07-23T07:15:54;18.07;;;10.10;;
19251;SDS011;9760;50.944;5.304;2022-07-23T07:18:19;17.63;;;9.90;;
19251;SDS011;9760;50.944;5.304;2022-07-23T07:20:45;19.83;;;10.30;;
19251;SDS011;9760;50.944;5.304;2022-07-23T07:23:11;18.43;;;10.27;;
19251;SDS011;9760;50.944;5.304;2022-07-23T07:25:37;23.67;;;11.87;;
19251;SDS011;9760;50.944;5.304;2022-07-23T07:28:03;18.43;;;10.23;;
19251;SDS011;9760;50.944;5.304;2022-07-23T07:30:29;14.00;;;8.97;;
19251;SDS011;9760;50.944;5.304;2022-07-23T07:32:54;17.30;;;9.97;;
19251;SDS011;9760;50.944;5.304;2022-07-23T07:35:20;15.67;;;9.57;;
19251;SDS011;9760;50.944;5.304;2022-07-23T07:37:46;15.43;;;9.47;;
19251;SDS011;9760;50.944;5.304;2022-07-23T07:40:11;18.53;;;10.43;;
19251;SDS011;9760;50.944;5.304;2022-07-23T07:42:50;20.90;;;9.00;;
19251;SDS011;9760;50.944;5.304;2022-07-23T07:45:17;15.93;;;9.03;;
19251;SDS011;9760;50.944;5.304;2022-07-23T07:47:45;15.80;;;9.20;;
19251;SDS011;9760;50.944;5.304;2022-07-23T07:50:11;21.23;;;9.30;;
19251;SDS011;9760;50.944;5.304;2022-07-23T07:52:37;18.03;;;9.30;;
19251;SDS011;9760;50.944;5.304;2022-07-23T07:55:03;16.87;;;9.07;;
19251;SDS011;9760;50.944;5.304;2022-07-23T07:57:29;15.73;;;8.23;;
19251;SDS011;9760;50.944;5.304;2022-07-23T07:59:55;16.03;;;8.23;;
19251;SDS011;9760;50.944;5.304;2022-07-23T08:02:21;15.87;;;7.97;;
19251;SDS011;9760;50.944;5.304;2022-07-23T08:04:46;10.73;;;7.10;;
19251;SDS011;9760;50.944;5.304;2022-07-23T08:07:13;16.80;;;7.80;;
19251;SDS011;9760;50.944;5.304;2022-07-23T08:09:39;18.77;;;8.23;;
19251;SDS011;9760;50.944;5.304;2022-07-23T08:12:05;17.43;;;8.13;;
19251;SDS011;9760;50.944;5.304;2022-07-23T08:14:31;12.33;;;7.57;;
19251;SDS011;9760;50.944;5.304;2022-07-23T08:16:57;18.00;;;8.53;;
19251;SDS011;9760;50.944;5.304;2022-07-23T08:19:22;16.63;;;8.13;;
19251;SDS011;9760;50.944;5.304;2022-07-23T08:21:48;15.60;;;7.27;;
19251;SDS011;9760;50.944;5.304;2022-07-23T08:24:14;12.27;;;7.73;;
19251;SDS011;9760;50.944;5.304;2022-07-23T08:26:39;11.13;;;6.70;;
19251;SDS011;9760;50.944;5.304;2022-07-23T08:29:06;18.53;;;6.07;;
19251;SDS011;9760;50.944;5.304;2022-07-23T08:31:31;10.60;;;6.10;;
19251;SDS011;9760;50.944;5.304;2022-07-23T08:33:58;14.47;;;7.30;;
19251;SDS011;9760;50.944;5.304;2022-07-23T08:36:25;13.50;;;7.13;;
19251;SDS011;9760;50.944;5.304;2022-07-23T08:38:57;13.40;;;7.20;;
19251;SDS011;9760;50.944;5.304;2022-07-23T08:41:28;19.60;;;7.77;;
19251;SDS011;9760;50.944;5.304;2022-07-23T08:43:54;14.93;;;7.60;;
19251;SDS011;9760;50.944;5.304;2022-07-23T08:46:20;12.87;;;7.37;;
19251;SDS011;9760;50.944;5.304;2022-07-23T08:48:48;21.33;;;7.87;;
19251;SDS011;9760;50.944;5.304;2022-07-23T08:51:15;15.43;;;7.30;;
19251;SDS011;9760;50.944;5.304;2022-07-23T08:53:41;17.03;;;7.73;;
19251;SDS011;9760;50.944;5.304;2022-07-23T08:56:07;13.90;;;7.37;;
19251;SDS011;9760;50.944;5.304;2022-07-23T08:58:33;14.10;;;7.27;;
19251;SDS011;9760;50.944;5.304;2022-07-23T09:01:00;12.60;;;7.90;;
19251;SDS011;9760;50.944;5.304;2022-07-23T09:03:30;15.27;;;7.57;;
19251;SDS011;9760;50.944;5.304;2022-07-23T09:05:58;13.47;;;7.23;;
19251;SDS011;9760;50.944;5.304;2022-07-23T09:08:33;12.33;;;7.03;;
19251;SDS011;9760;50.944;5.304;2022-07-23T09:11:01;17.70;;;7.47;;
19251;SDS011;9760;50.944;5.304;2022-07-23T09:18:34;11.90;;;6.20;;
19251;SDS011;9760;50.944;5.304;2022-07-23T09:21:19;10.13;;;6.43;;
19251;SDS011;9760;50.944;5.304;2022-07-23T09:26:21;13.20;;;7.57;;
19251;SDS011;9760;50.944;5.304;2022-07-23T09:28:59;11.60;;;6.93;;
19251;SDS011;9760;50.944;5.304;2022-07-23T09:31:46;10.07;;;5.77;;
19251;SDS011;9760;50.944;5.304;2022-07-23T09:34:13;10.93;;;6.33;;
19251;SDS011;9760;50.944;5.304;2022-07-23T09:36:39;11.70;;;6.57;;
19251;SDS011;9760;50.944;5.304;2022-07-23T09:39:06;15.80;;;6.47;;
19251;SDS011;9760;50.944;5.304;2022-07-23T09:41:39;10.13;;;5.93;;
19251;SDS011;9760;50.944;5.304;2022-07-23T09:44:11;10.70;;;6.07;;
19251;SDS011;9760;50.944;5.304;2022-07-23T09:46:41;11.93;;;5.93;;
19251;SDS011;9760;50.944;5.304;2022-07-23T09:49:21;11.70;;;6.00;;
19251;SDS011;9760;50.944;5.304;2022-07-23T09:54:21;12.23;;;5.17;;
19251;SDS011;9760;50.944;5.304;2022-07-23T09:56:54;12.93;;;4.90;;
19251;SDS011;9760;50.944;5.304;2022-07-23T09:59:22;11.37;;;5.70;;
19251;SDS011;9760;50.944;5.304;2022-07-23T10:01:53;10.70;;;4.93;;
19251;SDS011;9760;50.944;5.304;2022-07-23T10:04:22;10.03;;;4.77;;
19251;SDS011;9760;50.944;5.304;2022-07-23T10:06:53;9.57;;;5.33;;
19251;SDS011;9760;50.944;5.304;2022-07-23T10:09:27;9.97;;;4.80;;
19251;SDS011;9760;50.944;5.304;2022-07-23T10:11:55;8.70;;;4.23;;
19251;SDS011;9760;50.944;5.304;2022-07-23T10:14:26;9.00;;;4.57;;
19251;SDS011;9760;50.944;5.304;2022-07-23T10:16:55;10.50;;;4.77;;
19251;SDS011;9760;50.944;5.304;2022-07-23T10:19:21;9.07;;;4.50;;
19251;SDS011;9760;50.944;5.304;2022-07-23T10:21:49;9.37;;;4.10;;
19251;SDS011;9760;50.944;5.304;2022-07-23T10:24:36;10.43;;;3.80;;
19251;SDS011;9760;50.944;5.304;2022-07-23T10:35:35;11.33;;;3.23;;
19251;SDS011;9760;50.944;5.304;2022-07-23T10:38:14;5.07;;;2.73;;
19251;SDS011;9760;50.944;5.304;2022-07-23T10:43:21;7.47;;;3.67;;
19251;SDS011;9760;50.944;5.304;2022-07-23T10:45:47;11.00;;;3.50;;
19251;SDS011;9760;50.944;5.304;2022-07-23T10:48:20;4.90;;;2.17;;
19251;SDS011;9760;50.944;5.304;2022-07-23T10:59:19;9.80;;;2.30;;
19251;SDS011;9760;50.944;5.304;2022-07-23T11:01:45;6.13;;;2.30;;
19251;SDS011;9760;50.944;5.304;2022-07-23T11:04:11;2.90;;;1.90;;
19251;SDS011;9760;50.944;5.304;2022-07-23T11:15:03;2.77;;;1.60;;
19251;SDS011;9760;50.944;5.304;2022-07-23T11:18:16;2.63;;;1.60;;
19251;SDS011;9760;50.944;5.304;2022-07-23T11:20:21;3.23;;;1.30;;
19251;SDS011;9760;50.944;5.304;2022-07-23T11:22:49;1.97;;;1.40;;
19251;SDS011;9760;50.944;5.304;2022-07-23T11:27:47;6.30;;;1.80;;
19251;SDS011;9760;50.944;5.304;2022-07-23T11:32:52;4.53;;;1.30;;
19251;SDS011;9760;50.944;5.304;2022-07-23T11:35:41;1.83;;;1.00;;
19251;SDS011;9760;50.944;5.304;2022-07-23T11:38:17;2.20;;;1.13;;
19251;SDS011;9760;50.944;5.304;2022-07-23T11:40:51;2.27;;;1.20;;
19251;SDS011;9760;50.944;5.304;2022-07-23T11:43:19;2.10;;;1.00;;
19251;SDS011;9760;50.944;5.304;2022-07-23T11:45:50;1.40;;;1.13;;
19251;SDS011;9760;50.944;5.304;2022-07-23T11:48:21;3.27;;;1.33;;
19251;SDS011;9760;50.944;5.304;2022-07-23T11:50:49;1.30;;;1.10;;
19251;SDS011;9760;50.944;5.304;2022-07-23T11:53:22;1.60;;;1.07;;
19251;SDS011;9760;50.944;5.304;2022-07-23T11:55:48;3.03;;;1.00;;
19251;SDS011;9760;50.944;5.304;2022-07-23T11:58:14;3.43;;;1.47;;
19251;SDS011;9760;50.944;5.304;2022-07-23T12:00:40;1.00;;;0.90;;
19251;SDS011;9760;50.944;5.304;2022-07-23T12:03:07;1.10;;;1.00;;
19251;SDS011;9760;50.944;5.304;2022-07-23T12:05:34;2.43;;;1.20;;
19251;SDS011;9760;50.944;5.304;2022-07-23T12:08:02;2.23;;;1.23;;
19251;SDS011;9760;50.944;5.304;2022-07-23T12:10:37;2.97;;;1.23;;
19251;SDS011;9760;50.944;5.304;2022-07-23T12:13:08;1.67;;;1.07;;
19251;SDS011;9760;50.944;5.304;2022-07-23T12:15:39;4.00;;;1.40;;
19251;SDS011;9760;50.944;5.304;2022-07-23T12:18:07;8.77;;;1.40;;
19251;SDS011;9760;50.944;5.304;2022-07-23T12:20:36;6.13;;;1.40;;
19251;SDS011;9760;50.944;5.304;2022-07-23T12:23:10;3.30;;;1.20;;
19251;SDS011;9760;50.944;5.304;2022-07-23T12:25:38;1.23;;;1.00;;
19251;SDS011;9760;50.944;5.304;2022-07-23T12:28:07;2.37;;;1.20;;
19251;SDS011;9760;50.944;5.304;2022-07-23T12:33:02;2.40;;;1.73;;
19251;SDS011;9760;50.944;5.304;2022-07-23T12:35:30;2.87;;;1.40;;
19251;SDS011;9760;50.944;5.304;2022-07-23T12:38:00;6.63;;;1.67;;
19251;SDS011;9760;50.944;5.304;2022-07-23T12:40:31;2.50;;;1.23;;
19251;SDS011;9760;50.944;5.304;2022-07-23T12:45:49;3.47;;;1.70;;
19251;SDS011;9760;50.944;5.304;2022-07-23T12:48:17;3.20;;;1.50;;
19251;SDS011;9760;50.944;5.304;2022-07-23T12:50:49;1.90;;;1.70;;
19251;SDS011;9760;50.944;5.304;2022-07-23T12:53:21;1.87;;;1.43;;
19251;SDS011;9760;50.944;5.304;2022-07-23T12:55:48;2.60;;;1.47;;
19251;SDS011;9760;50.944;5.304;2022-07-23T12:58:16;3.90;;;1.57;;
19251;SDS011;9760;50.944;5.304;2022-07-23T13:00:52;2.97;;;1.43;;
19251;SDS011;9760;50.944;5.304;2022-07-23T13:03:28;5.53;;;1.70;;
19251;SDS011;9760;50.944;5.304;2022-07-23T13:05:58;3.67;;;1.70;;
19251;SDS011;9760;50.944;5.304;2022-07-23T13:08:26;5.77;;;1.80;;
19251;SDS011;9760;50.944;5.304;2022-07-23T13:10:53;2.27;;;1.70;;
19251;SDS011;9760;50.944;5.304;2022-07-23T13:13:28;3.00;;;1.83;;
19251;SDS011;9760;50.944;5.304;2022-07-23T13:15:55;3.10;;;1.87;;
19251;SDS011;9760;50.944;5.304;2022-07-23T13:18:22;5.43;;;2.03;;
19251;SDS011;9760;50.944;5.304;2022-07-23T13:20:48;2.90;;;1.80;;
19251;SDS011;9760;50.944;5.304;2022-07-23T13:23:14;6.33;;;2.10;;
19251;SDS011;9760;50.944;5.304;2022-07-23T13:25:40;4.87;;;1.83;;
19251;SDS011;9760;50.944;5.304;2022-07-23T13:28:07;2.67;;;1.90;;
19251;SDS011;9760;50.944;5.304;2022-07-23T13:30:32;4.33;;;2.20;;
19251;SDS011;9760;50.944;5.304;2022-07-23T13:32:58;4.23;;;1.90;;
19251;SDS011;9760;50.944;5.304;2022-07-23T13:35:24;2.47;;;2.10;;
19251;SDS011;9760;50.944;5.304;2022-07-23T13:37:50;5.93;;;2.07;;
19251;SDS011;9760;50.944;5.304;2022-07-23T13:40:16;4.93;;;2.13;;
19251;SDS011;9760;50.944;5.304;2022-07-23T13:42:42;4.80;;;2.30;;
19251;SDS011;9760;50.944;5.304;2022-07-23T13:45:07;7.00;;;2.33;;
19251;SDS011;9760;50.944;5.304;2022-07-23T13:47:33;2.10;;;1.90;;
19251;SDS011;9760;50.944;5.304;2022-07-23T13:49:59;3.80;;;2.37;;
19251;SDS011;9760;50.944;5.304;2022-07-23T13:52:25;3.77;;;1.90;;
19251;SDS011;9760;50.944;5.304;2022-07-23T13:54:51;4.10;;;2.33;;
19251;SDS011;9760;50.944;5.304;2022-07-23T13:57:17;7.93;;;2.53;;
19251;SDS011;9760;50.944;5.304;2022-07-23T13:59:42;8.00;;;2.33;;
19251;SDS011;9760;50.944;5.304;2022-07-23T14:02:08;3.30;;;2.20;;
19251;SDS011;9760;50.944;5.304;2022-07-23T14:04:35;7.50;;;2.23;;
19251;SDS011;9760;50.944;5.304;2022-07-23T14:07:00;2.97;;;1.83;;
19251;SDS011;9760;50.944;5.304;2022-07-23T14:09:26;2.50;;;1.87;;
19251;SDS011;9760;50.944;5.304;2022-07-23T14:11:52;6.70;;;2.33;;
19251;SDS011;9760;50.944;5.304;2022-07-23T14:14:18;3.00;;;1.80;;
19251;SDS011;9760;50.944;5.304;2022-07-23T14:16:44;3.60;;;1.93;;
19251;SDS011;9760;50.944;5.304;2022-07-23T14:19:10;4.10;;;1.90;;
19251;SDS011;9760;50.944;5.304;2022-07-23T14:21:36;2.27;;;1.87;;
19251;SDS011;9760;50.944;5.304;2022-07-23T14:24:02;4.17;;;2.20;;
19251;SDS011;9760;50.944;5.304;2022-07-23T14:26:28;3.20;;;2.00;;
19251;SDS011;9760;50.944;5.304;2022-07-23T14:28:54;5.07;;;2.20;;
19251;SDS011;9760;50.944;5.304;2022-07-23T14:31:19;3.37;;;1.90;;
19251;SDS011;9760;50.944;5.304;2022-07-23T14:33:45;3.63;;;2.00;;
19251;SDS011;9760;50.944;5.304;2022-07-23T14:36:11;3.43;;;2.10;;
19251;SDS011;9760;50.944;5.304;2022-07-23T14:38:36;3.20;;;2.07;;
19251;SDS011;9760;50.944;5.304;2022-07-23T14:41:02;4.97;;;2.47;;
19251;SDS011;9760;50.944;5.304;2022-07-23T14:43:31;5.80;;;2.57;;
19251;SDS011;9760;50.944;5.304;2022-07-23T14:45:58;3.50;;;2.40;;
19251;SDS011;9760;50.944;5.304;2022-07-23T14:48:23;3.77;;;2.43;;
19251;SDS011;9760;50.944;5.304;2022-07-23T14:50:49;3.63;;;2.43;;
19251;SDS011;9760;50.944;5.304;2022-07-23T14:53:15;4.20;;;2.40;;
19251;SDS011;9760;50.944;5.304;2022-07-23T14:55:41;5.27;;;2.37;;
19251;SDS011;9760;50.944;5.304;2022-07-23T14:58:07;2.90;;;2.20;;
19251;SDS011;9760;50.944;5.304;2022-07-23T15:00:33;8.93;;;2.30;;
19251;SDS011;9760;50.944;5.304;2022-07-23T15:02:58;10.03;;;2.67;;
19251;SDS011;9760;50.944;5.304;2022-07-23T15:05:24;5.07;;;2.40;;
19251;SDS011;9760;50.944;5.304;2022-07-23T15:07:50;10.37;;;2.73;;
19251;SDS011;9760;50.944;5.304;2022-07-23T15:10:16;4.20;;;2.33;;
19251;SDS011;9760;50.944;5.304;2022-07-23T15:12:42;4.50;;;2.63;;
19251;SDS011;9760;50.944;5.304;2022-07-23T15:15:07;4.47;;;2.90;;
19251;SDS011;9760;50.944;5.304;2022-07-23T15:17:33;6.87;;;2.60;;
19251;SDS011;9760;50.944;5.304;2022-07-23T15:19:59;8.20;;;3.07;;
19251;SDS011;9760;50.944;5.304;2022-07-23T15:22:25;4.67;;;2.20;;
19251;SDS011;9760;50.944;5.304;2022-07-23T15:24:50;6.50;;;2.50;;
19251;SDS011;9760;50.944;5.304;2022-07-23T15:27:16;6.47;;;2.93;;
19251;SDS011;9760;50.944;5.304;2022-07-23T15:29:43;3.43;;;2.07;;
19251;SDS011;9760;50.944;5.304;2022-07-23T15:32:09;5.07;;;2.80;;
19251;SDS011;9760;50.944;5.304;2022-07-23T15:34:36;5.80;;;2.73;;
19251;SDS011;9760;50.944;5.304;2022-07-23T15:37:02;3.40;;;2.23;;
19251;SDS011;9760;50.944;5.304;2022-07-23T15:39:30;2.90;;;2.23;;